Time;durP1;ratioP1;P1;durP2;ratioP2;P2;SDS_P1;SDS_P2;PMS_P1;PMS_P2;Temp;Humidity;BMP_temperature;BMP_pressure;BME280_temperature;BME280_humidity;BME280_pressure;Samples;Min_cycle;Max_cycle;Signal;HPM_P1;HPM_P2
2022/05/02 00:01:45;;;;;;;13.27;11.88;;;;;;;;;;5093011;28;20059;-69
2022/05/02 00:04:11;;;;;;;13.88;11.38;;;;;;;;;;5092992;28;20048;-69
2022/05/02 00:06:39;;;;;;;11.75;10.60;;;;;;;;;;5092877;28;20048;-69
2022/05/02 00:09:06;;;;;;;13.50;12.10;;;;;;;;;;5092525;28;20052;-69
2022/05/02 00:11:32;;;;;;;14.18;12.38;;;;;;;;;;5076724;28;20073;-69
2022/05/02 00:13:59;;;;;;;13.15;11.32;;;;;;;;;;5072720;28;20052;-69
2022/05/02 00:16:25;;;;;;;13.45;10.93;;;;;;;;;;5071779;28;20507;-69
2022/05/02 00:18:52;;;;;;;14.77;13.18;;;;;;;;;;5072002;28;20082;-69
2022/05/02 00:21:19;;;;;;;13.70;12.32;;;;;;;;;;5072068;28;20052;-69
2022/05/02 00:23:45;;;;;;;13.80;12.27;;;;;;;;;;5090335;28;20403;-69
2022/05/02 00:26:12;;;;;;;15.55;13.27;;;;;;;;;;5092285;28;20043;-69
2022/05/02 00:28:38;;;;;;;14.68;12.90;;;;;;;;;;5092425;28;20093;-69
2022/05/02 00:31:05;;;;;;;14.02;11.77;;;;;;;;;;5092295;28;20048;-69
2022/05/02 00:33:32;;;;;;;14.10;12.60;;;;;;;;;;5092154;28;20094;-70
2022/05/02 00:35:58;;;;;;;15.65;12.63;;;;;;;;;;5091243;28;20465;-69
2022/05/02 00:38:25;;;;;;;16.15;12.80;;;;;;;;;;5071837;28;20118;-69
2022/05/02 00:40:52;;;;;;;13.20;11.77;;;;;;;;;;5071699;28;20098;-69
2022/05/02 00:43:18;;;;;;;13.23;11.93;;;;;;;;;;5071994;28;20419;-69
2022/05/02 00:45:45;;;;;;;13.70;12.40;;;;;;;;;;5071975;28;20056;-69
2022/05/02 00:48:12;;;;;;;13.30;11.82;;;;;;;;;;5071815;28;20059;-69
2022/05/02 00:50:41;;;;;;;15.10;12.48;;;;;;;;;;5071731;28;20090;-68
2022/05/02 00:53:12;;;;;;;13.23;11.80;;;;;;;;;;5071654;28;20059;-69
2022/05/02 00:55:40;;;;;;;13.07;10.95;;;;;;;;;;5072219;28;20110;-69
2022/05/02 00:58:07;;;;;;;14.40;12.55;;;;;;;;;;5071599;28;20052;-69
2022/05/02 01:00:36;;;;;;;14.60;11.38;;;;;;;;;;5071622;28;20040;-69
2022/05/02 01:03:03;;;;;;;13.20;11.90;;;;;;;;;;5071755;28;20049;-69
2022/05/02 01:05:30;;;;;;;12.82;11.60;;;;;;;;;;5090255;28;20567;-69
2022/05/02 01:07:57;;;;;;;13.05;11.60;;;;;;;;;;5073877;28;20048;-69
2022/05/02 01:10:24;;;;;;;14.18;12.77;;;;;;;;;;5074201;28;20089;-69
2022/05/02 01:12:52;;;;;;;12.25;10.95;;;;;;;;;;5091664;28;20069;-69
2022/05/02 01:15:18;;;;;;;12.85;10.75;;;;;;;;;;5092073;28;20098;-69
2022/05/02 01:17:45;;;;;;;14.40;12.40;;;;;;;;;;5090154;28;20056;-69
2022/05/02 01:20:13;;;;;;;13.93;12.40;;;;;;;;;;5071387;28;20048;-69
2022/05/02 01:22:41;;;;;;;14.45;12.95;;;;;;;;;;5071262;28;20102;-69
2022/05/02 01:25:09;;;;;;;13.23;11.93;;;;;;;;;;5071803;28;20102;-69
2022/05/02 01:27:35;;;;;;;15.30;12.73;;;;;;;;;;5073686;28;20060;-69
2022/05/02 01:30:02;;;;;;;16.98;13.27;;;;;;;;;;5075670;28;20044;-69
2022/05/02 01:32:29;;;;;;;14.32;12.75;;;;;;;;;;5073976;28;20048;-69
2022/05/02 01:34:56;;;;;;;16.70;13.35;;;;;;;;;;5075340;28;20060;-69
2022/05/02 01:37:22;;;;;;;15.88;14.18;;;;;;;;;;5075189;28;20110;-69
2022/05/02 01:39:49;;;;;;;16.13;14.43;;;;;;;;;;5075506;28;20055;-69
2022/05/02 01:42:15;;;;;;;18.13;15.13;;;;;;;;;;5075193;28;20049;-68
2022/05/02 01:44:42;;;;;;;16.63;14.52;;;;;;;;;;5075113;28;20060;-69
2022/05/02 01:47:09;;;;;;;18.23;15.10;;;;;;;;;;5085813;28;20048;-69
2022/05/02 01:49:36;;;;;;;17.23;15.20;;;;;;;;;;5057593;28;20053;-70
2022/05/02 01:52:03;;;;;;;17.75;15.32;;;;;;;;;;5075867;28;20052;-69
2022/05/02 01:54:29;;;;;;;17.33;14.80;;;;;;;;;;5075115;28;20052;-69
2022/05/02 01:56:56;;;;;;;19.17;16.55;;;;;;;;;;5074714;28;20053;-69
2022/05/02 01:59:23;;;;;;;19.23;15.68;;;;;;;;;;5074988;28;20457;-69
2022/05/02 02:01:50;;;;;;;21.15;15.10;;;;;;;;;;5074597;28;20071;-69
2022/05/02 02:07:03;;;;;;;16.73;14.57;;;;;;;;;;5074667;28;20060;-69
2022/05/02 02:09:29;;;;;;;19.10;16.20;;;;;;;;;;5074661;28;20049;-69
2022/05/02 02:11:57;;;;;;;17.27;15.00;;;;;;;;;;5074526;28;20063;-69
2022/05/02 02:14:24;;;;;;;18.55;15.15;;;;;;;;;;5073273;28;20051;-69
2022/05/02 02:16:51;;;;;;;17.67;15.23;;;;;;;;;;5074951;28;20051;-69
2022/05/02 02:19:18;;;;;;;18.05;15.32;;;;;;;;;;5074376;28;20055;-69
2022/05/02 02:21:44;;;;;;;17.00;15.18;;;;;;;;;;5074453;28;20052;-69
2022/05/02 02:24:11;;;;;;;19.27;14.82;;;;;;;;;;5074444;28;20048;-69
2022/05/02 02:26:38;;;;;;;17.95;16.02;;;;;;;;;;5073151;28;20055;-69
2022/05/02 02:29:05;;;;;;;17.20;15.35;;;;;;;;;;5074239;28;20052;-69
2022/05/02 02:31:32;;;;;;;19.67;16.15;;;;;;;;;;5056580;28;20051;-69
2022/05/02 02:33:58;;;;;;;18.40;15.45;;;;;;;;;;5074191;28;20494;-69
2022/05/02 02:36:25;;;;;;;19.00;16.17;;;;;;;;;;5074249;28;20048;-69
2022/05/02 02:38:52;;;;;;;20.92;17.50;;;;;;;;;;5073516;28;20057;-69
2022/05/02 02:41:18;;;;;;;19.73;16.80;;;;;;;;;;5074017;28;20494;-68
2022/05/02 02:43:45;;;;;;;19.85;16.23;;;;;;;;;;5091792;28;20098;-68
2022/05/02 02:46:11;;;;;;;19.48;17.33;;;;;;;;;;5094378;28;20067;-69
2022/05/02 02:48:38;;;;;;;19.92;17.33;;;;;;;;;;5094267;28;20048;-69
2022/05/02 02:51:05;;;;;;;19.65;17.55;;;;;;;;;;5094054;28;20052;-69
2022/05/02 02:53:31;;;;;;;20.25;17.50;;;;;;;;;;5094179;28;20048;-69
2022/05/02 02:55:58;;;;;;;21.38;18.98;;;;;;;;;;5094166;28;20058;-69
2022/05/02 02:58:25;;;;;;;19.77;17.67;;;;;;;;;;5093913;28;20055;-69
2022/05/02 03:00:52;;;;;;;23.58;20.02;;;;;;;;;;5093813;28;20449;-69
2022/05/02 03:03:18;;;;;;;25.20;20.10;;;;;;;;;;5089594;22;20380;-69
2022/05/02 03:06:03;;;;;;;21.15;18.95;;;;;;;;;;5019754;28;20063;-69
2022/05/02 03:08:34;;;;;;;24.42;18.85;;;;;;;;;;5038826;28;20491;-68
2022/05/02 03:11:01;;;;;;;27.73;18.75;;;;;;;;;;5019952;28;20383;-69
2022/05/02 03:13:28;;;;;;;19.95;17.75;;;;;;;;;;5047050;28;20049;-69
2022/05/02 03:15:56;;;;;;;20.75;18.35;;;;;;;;;;5039489;28;20052;-70
2022/05/02 03:18:23;;;;;;;20.50;18.20;;;;;;;;;;5056133;28;20063;-69
2022/05/02 03:20:52;;;;;;;19.95;17.38;;;;;;;;;;5055892;28;20044;-69
2022/05/02 03:23:20;;;;;;;21.83;18.35;;;;;;;;;;5039057;28;20053;-69
2022/05/02 03:25:47;;;;;;;21.42;18.73;;;;;;;;;;5056116;28;20052;-69
2022/05/02 03:28:14;;;;;;;24.00;19.17;;;;;;;;;;5039110;28;20052;-69
2022/05/02 03:30:41;;;;;;;20.25;17.23;;;;;;;;;;5073231;28;20044;-68
2022/05/02 03:33:07;;;;;;;20.20;18.00;;;;;;;;;;5055449;28;20170;-69
2022/05/02 03:35:34;;;;;;;21.25;17.70;;;;;;;;;;5055482;28;20517;-69
2022/05/02 03:38:01;;;;;;;22.92;18.08;;;;;;;;;;5055691;28;20079;-69
2022/05/02 03:40:27;;;;;;;21.75;18.75;;;;;;;;;;5055454;28;20067;-69
2022/05/02 03:42:54;;;;;;;21.23;17.67;;;;;;;;;;5038531;28;20218;-69
2022/05/02 03:45:21;;;;;;;22.48;18.42;;;;;;;;;;5072992;28;20048;-69
2022/05/02 03:47:48;;;;;;;22.65;18.05;;;;;;;;;;5055116;28;20044;-69
2022/05/02 03:50:15;;;;;;;20.73;18.50;;;;;;;;;;5074781;28;20407;-69
2022/05/02 03:52:41;;;;;;;21.92;17.38;;;;;;;;;;5067132;28;20058;-69
2022/05/02 03:55:08;;;;;;;22.13;18.85;;;;;;;;;;5093303;28;20052;-68
2022/05/02 03:57:35;;;;;;;20.85;17.67;;;;;;;;;;5075057;28;20052;-69
2022/05/02 04:00:03;;;;;;;19.98;16.88;;;;;;;;;;5058407;28;20411;-69
2022/05/02 04:02:30;;;;;;;21.35;18.02;;;;;;;;;;5074631;28;20056;-69
2022/05/02 04:04:57;;;;;;;21.85;18.85;;;;;;;;;;5063941;28;20426;-69
2022/05/02 04:07:24;;;;;;;20.95;18.65;;;;;;;;;;5055001;28;20044;-69
2022/05/02 04:09:51;;;;;;;19.52;17.42;;;;;;;;;;5072493;28;20485;-69
2022/05/02 04:12:18;;;;;;;22.02;17.83;;;;;;;;;;5055233;28;20060;-69
2022/05/02 04:14:44;;;;;;;21.88;18.05;;;;;;;;;;5071972;28;20071;-69
2022/05/02 04:17:12;;;;;;;22.58;18.60;;;;;;;;;;5071277;28;20048;-69
2022/05/02 04:19:38;;;;;;;20.17;17.67;;;;;;;;;;5063150;28;20055;-69
2022/05/02 04:22:05;;;;;;;22.23;18.63;;;;;;;;;;5071133;28;20094;-69
2022/05/02 04:24:31;;;;;;;21.65;19.35;;;;;;;;;;5062115;28;20041;-69
2022/05/02 04:26:58;;;;;;;22.58;19.30;;;;;;;;;;5071891;28;20058;-70
2022/05/02 04:29:25;;;;;;;22.10;18.60;;;;;;;;;;5054485;28;20059;-70
2022/05/02 04:31:52;;;;;;;20.98;16.95;;;;;;;;;;5070556;28;20051;-69
2022/05/02 04:34:18;;;;;;;18.92;16.92;;;;;;;;;;5055388;28;20055;-70
2022/05/02 04:36:45;;;;;;;24.27;18.33;;;;;;;;;;5054600;28;20056;-69
2022/05/02 04:39:12;;;;;;;21.20;17.08;;;;;;;;;;5072042;28;20049;-69
2022/05/02 04:41:38;;;;;;;19.90;16.17;;;;;;;;;;5071710;28;20507;-69
2022/05/02 04:44:05;;;;;;;21.92;17.50;;;;;;;;;;5054234;28;20427;-69
2022/05/02 04:46:32;;;;;;;19.98;17.70;;;;;;;;;;5071721;28;20102;-69
2022/05/02 04:48:58;;;;;;;19.50;17.35;;;;;;;;;;5089921;28;20051;-69
2022/05/02 04:51:25;;;;;;;19.40;16.63;;;;;;;;;;5057631;28;20464;-69
2022/05/02 04:53:51;;;;;;;20.27;17.60;;;;;;;;;;5057568;28;20052;-72
2022/05/02 04:56:18;;;;;;;20.15;17.15;;;;;;;;;;5057572;28;20056;-69
2022/05/02 04:58:45;;;;;;;20.45;17.55;;;;;;;;;;5057840;28;20521;-69
2022/05/02 05:01:12;;;;;;;24.60;18.98;;;;;;;;;;5079100;28;20052;-69
2022/05/02 05:03:39;;;;;;;21.40;18.48;;;;;;;;;;5054028;28;20095;-69
2022/05/02 05:06:06;;;;;;;22.40;18.85;;;;;;;;;;5054014;28;20444;-69
2022/05/02 05:08:33;;;;;;;25.42;18.98;;;;;;;;;;5071631;28;20044;-69
2022/05/02 05:11:09;;;;;;;24.60;19.02;;;;;;;;;;5037343;28;20045;-69
2022/05/02 05:16:59;;;;;;;22.70;18.50;;;;;;;;;;5056688;28;20491;-69
2022/05/02 05:20:03;;;;;;;24.30;18.98;;;;;;;;;;5054360;28;20075;-70
2022/05/02 05:22:51;;;;;;;20.45;17.65;;;;;;;;;;5047898;28;20048;-69
2022/05/02 05:25:36;;;;;;;22.13;18.92;;;;;;;;;;5071609;28;20051;-69
2022/05/02 05:28:21;;;;;;;21.70;19.02;;;;;;;;;;5053837;28;20479;-70
2022/05/02 05:30:50;;;;;;;25.92;18.98;;;;;;;;;;5071574;28;20052;-69
2022/05/02 05:33:29;;;;;;;23.08;18.52;;;;;;;;;;5037850;28;20048;-70
2022/05/02 05:36:20;;;;;;;21.65;18.80;;;;;;;;;;5037889;28;20412;-69
2022/05/02 05:38:57;;;;;;;22.52;19.30;;;;;;;;;;5053547;28;20103;-70
2022/05/02 05:41:49;;;;;;;25.85;23.05;;;;;;;;;;5062496;28;20049;-70
2022/05/02 05:44:33;;;;;;;28.20;23.95;;;;;;;;;;5091560;28;20537;-70
2022/05/02 05:47:24;;;;;;;26.08;21.70;;;;;;;;;;5090411;28;20078;-69
2022/05/02 05:50:09;;;;;;;25.10;21.45;;;;;;;;;;5073476;28;20051;-69
2022/05/02 05:52:58;;;;;;;25.13;19.27;;;;;;;;;;5091221;28;20059;-69
2022/05/02 05:55:30;;;;;;;21.33;17.92;;;;;;;;;;5084769;28;20060;-70
2022/05/02 05:58:12;;;;;;;20.42;17.92;;;;;;;;;;5035359;28;20056;-68
2022/05/02 06:00:43;;;;;;;22.10;18.75;;;;;;;;;;5069113;28;20144;-69
2022/05/02 06:03:15;;;;;;;20.02;17.92;;;;;;;;;;5078384;28;20059;-69
2022/05/02 06:05:46;;;;;;;23.33;18.35;;;;;;;;;;5071422;28;20055;-70
2022/05/02 06:08:16;;;;;;;22.23;18.95;;;;;;;;;;5055717;28;20101;-70
2022/05/02 06:10:43;;;;;;;22.80;18.90;;;;;;;;;;5088882;28;20044;-70
2022/05/02 06:13:10;;;;;;;24.20;19.10;;;;;;;;;;5054813;28;20079;-70
2022/05/02 06:18:30;;;;;;;24.17;19.33;;;;;;;;;;5064635;28;20088;-70
2022/05/02 06:21:02;;;;;;;20.27;17.75;;;;;;;;;;5040029;28;20070;-70
2022/05/02 06:23:35;;;;;;;20.35;18.17;;;;;;;;;;5038309;28;20451;-70
2022/05/02 06:26:02;;;;;;;;;;;;;;;;;;5055118;28;20498;-70
2022/05/02 06:28:30;;;;;;;21.00;18.10;;;;;;;;;;5054531;28;19924;-70
2022/05/02 06:30:59;;;;;;;22.42;17.63;;;;;;;;;;5054612;28;20044;-70
2022/05/02 06:33:26;;;;;;;21.60;17.05;;;;;;;;;;5049340;28;20047;-70
2022/05/02 06:35:59;;;;;;;21.42;18.70;;;;;;;;;;5075546;28;20048;-70
2022/05/02 06:38:44;;;;;;;18.80;16.35;;;;;;;;;;5082092;28;20116;-70
2022/05/02 06:41:52;;;;;;;20.33;17.77;;;;;;;;;;5071992;28;20051;-70
2022/05/02 06:44:57;;;;;;;20.98;16.98;;;;;;;;;;5057208;28;20048;-69
2022/05/02 06:47:32;;;;;;;23.08;17.55;;;;;;;;;;4983126;28;20062;-70
2022/05/02 06:50:02;;;;;;;20.27;15.80;;;;;;;;;;5077464;28;20098;-70
2022/05/02 06:52:37;;;;;;;18.33;16.38;;;;;;;;;;5067146;28;20052;-69
2022/05/02 06:55:07;;;;;;;21.67;18.00;;;;;;;;;;5053790;28;20445;-69
2022/05/02 06:57:53;;;;;;;18.88;16.00;;;;;;;;;;5070452;28;20052;-70
2022/05/02 07:00:20;;;;;;;20.95;16.58;;;;;;;;;;5053865;28;20053;-67
2022/05/02 07:02:56;;;;;;;20.23;16.38;;;;;;;;;;5070811;28;20281;-73
2022/05/02 07:05:23;;;;;;;18.48;15.65;;;;;;;;;;5071909;28;20097;-66
2022/05/02 07:07:57;;;;;;;22.55;16.40;;;;;;;;;;5071342;28;20067;-71
2022/05/02 07:10:26;;;;;;;19.60;17.50;;;;;;;;;;5055695;28;20053;-66
2022/05/02 07:12:58;;;;;;;17.75;15.85;;;;;;;;;;5056026;28;20049;-67
2022/05/02 07:15:37;;;;;;;18.95;16.33;;;;;;;;;;5056000;28;20114;-66
2022/05/02 07:18:06;;;;;;;17.25;15.40;;;;;;;;;;5040148;28;20071;-67
2022/05/02 07:20:48;;;;;;;20.13;15.68;;;;;;;;;;5074387;28;20048;-67
2022/05/02 07:23:43;;;;;;;18.17;16.27;;;;;;;;;;5073462;28;20473;-67
2022/05/02 07:26:14;;;;;;;18.45;16.48;;;;;;;;;;5056719;28;20090;-67
2022/05/02 07:28:45;;;;;;;18.20;16.25;;;;;;;;;;5039391;28;20503;-67
2022/05/02 07:31:13;;;;;;;18.33;16.00;;;;;;;;;;5055114;28;20050;-67
2022/05/02 07:33:40;;;;;;;17.02;15.25;;;;;;;;;;5075546;28;20086;-67
2022/05/02 07:36:07;;;;;;;19.60;16.73;;;;;;;;;;5059025;28;20052;-67
2022/05/02 07:38:35;;;;;;;20.00;17.17;;;;;;;;;;5093488;28;20044;-67
2022/05/02 07:41:23;;;;;;;19.35;17.17;;;;;;;;;;5075231;28;20361;-66
2022/05/02 07:44:00;;;;;;;20.73;17.08;;;;;;;;;;5074803;28;20079;-67
2022/05/02 07:46:47;;;;;;;18.20;16.27;;;;;;;;;;5060535;28;20059;-67
2022/05/02 07:49:15;;;;;;;18.50;16.65;;;;;;;;;;5061671;28;20060;-67
2022/05/02 07:51:47;;;;;;;18.67;15.75;;;;;;;;;;5054959;28;20044;-67
2022/05/02 07:54:15;;;;;;;15.88;14.27;;;;;;;;;;5039628;28;20063;-66
2022/05/02 07:56:42;;;;;;;19.10;16.13;;;;;;;;;;5038800;28;20536;-67
2022/05/02 07:59:09;;;;;;;16.63;14.70;;;;;;;;;;5038541;28;20143;-67
2022/05/02 08:01:35;;;;;;;19.20;17.20;;;;;;;;;;5054843;28;20468;-67
2022/05/02 08:04:02;;;;;;;20.77;17.23;;;;;;;;;;5072359;28;20121;-67
2022/05/02 08:07:00;;;;;;;17.05;15.00;;;;;;;;;;5055914;28;20045;-66
2022/05/02 08:09:53;;;;;;;16.98;15.02;;;;;;;;;;5055126;28;20048;-66
2022/05/02 08:12:29;;;;;;;22.30;16.10;;;;;;;;;;5055916;28;20053;-67
2022/05/02 08:15:06;;;;;;;23.50;16.55;;;;;;;;;;5055654;28;20052;-67
2022/05/02 08:18:09;;;;;;;18.05;16.15;;;;;;;;;;5072280;28;20045;-67
2022/05/02 08:21:14;;;;;;;19.10;16.70;;;;;;;;;;5084675;28;20044;-66
2022/05/02 08:29:47;;;;;;;20.98;16.20;;;;;;;;;;5092312;28;20056;-67
2022/05/02 08:32:23;;;;;;;17.13;14.77;;;;;;;;;;5092024;28;20048;-67
2022/05/02 08:35:00;;;;;;;18.10;15.40;;;;;;;;;;5072355;28;20048;-66
2022/05/02 08:37:42;;;;;;;16.88;15.07;;;;;;;;;;5074665;28;20047;-67
2022/05/02 08:40:24;;;;;;;19.85;16.33;;;;;;;;;;5092440;28;20048;-67
2022/05/02 08:43:19;;;;;;;18.75;15.43;;;;;;;;;;5092112;28;20048;-66
2022/05/02 08:46:00;;;;;;;17.73;15.15;;;;;;;;;;5092183;28;20055;-67
2022/05/02 08:51:49;;;;;;;17.17;15.40;;;;;;;;;;5059486;28;20419;-67
2022/05/02 08:54:21;;;;;;;14.82;13.32;;;;;;;;;;5071504;28;20064;-67
2022/05/02 08:56:57;;;;;;;15.32;13.73;;;;;;;;;;5072052;28;20056;-67
2022/05/02 08:59:44;;;;;;;16.20;14.57;;;;;;;;;;5071781;28;20053;-67
2022/05/02 09:02:45;;;;;;;19.27;15.07;;;;;;;;;;5071421;28;20457;-66
2022/05/02 09:05:28;;;;;;;16.02;14.38;;;;;;;;;;5087956;22;20165;-67
2022/05/02 09:08:16;;;;;;;18.40;14.10;;;;;;;;;;5035570;28;20064;-67
2022/05/02 09:10:58;;;;;;;14.70;13.05;;;;;;;;;;5051588;28;20053;-67
2022/05/02 09:13:43;;;;;;;15.40;13.70;;;;;;;;;;5050318;28;20057;-67
2022/05/02 09:16:28;;;;;;;14.82;13.20;;;;;;;;;;5057315;28;20056;-67
2022/05/02 09:19:22;;;;;;;15.98;14.05;;;;;;;;;;5071546;28;20491;-67
2022/05/02 09:22:13;;;;;;;;;;;;;;;;;;5070614;28;20048;-67
2022/05/02 09:24:43;;;;;;;15.30;12.93;;;;;;;;;;5070411;28;19921;-67
2022/05/02 09:27:37;;;;;;;14.30;12.80;;;;;;;;;;5071997;28;20049;-67
2022/05/02 09:30:33;;;;;;;14.23;12.75;;;;;;;;;;5050663;28;20048;-67
2022/05/02 09:33:10;;;;;;;12.40;10.15;;;;;;;;;;5016950;28;20446;-67
2022/05/02 09:36:17;;;;;;;11.25;9.98;;;;;;;;;;5051560;28;20057;-67
2022/05/02 09:39:02;;;;;;;9.93;8.93;;;;;;;;;;5032083;28;20049;-68
2022/05/02 09:41:48;;;;;;;12.50;9.43;;;;;;;;;;5065127;28;20587;-68
2022/05/02 09:50:25;;;;;;;9.50;8.10;;;;;;;;;;5053857;28;20049;-67
2022/05/02 09:53:02;;;;;;;10.38;8.70;;;;;;;;;;5054698;28;20056;-68
2022/05/02 09:58:54;;;;;;;8.93;7.95;;;;;;;;;;5044101;28;20049;-67
2022/05/02 10:01:27;;;;;;;7.60;6.90;;;;;;;;;;5053610;28;20053;-67
2022/05/02 10:04:12;;;;;;;10.25;8.55;;;;;;;;;;5054635;28;20216;-67
2022/05/02 10:06:43;;;;;;;8.60;7.72;;;;;;;;;;5055177;28;20514;-69
2022/05/02 10:09:31;;;;;;;9.35;8.35;;;;;;;;;;5055048;28;20049;-68
2022/05/02 10:12:20;;;;;;;8.73;7.90;;;;;;;;;;5053603;28;20098;-68
2022/05/02 10:14:56;;;;;;;7.53;6.68;;;;;;;;;;5068295;28;20049;-68
2022/05/02 10:17:31;;;;;;;8.07;7.25;;;;;;;;;;5071003;28;20052;-68
2022/05/02 10:20:07;;;;;;;8.48;7.40;;;;;;;;;;5049564;28;20049;-66
2022/05/02 10:22:47;;;;;;;7.28;6.57;;;;;;;;;;5062479;28;20071;-66
2022/05/02 10:25:23;;;;;;;7.57;6.78;;;;;;;;;;5064689;28;20068;-66
2022/05/02 10:28:13;;;;;;;6.90;6.18;;;;;;;;;;5068398;28;20052;-66
2022/05/02 10:30:41;;;;;;;8.40;7.30;;;;;;;;;;5056958;28;20415;-67
2022/05/02 10:33:13;;;;;;;8.75;7.85;;;;;;;;;;5059223;28;20045;-67
2022/05/02 10:35:39;;;;;;;6.38;5.78;;;;;;;;;;5060448;28;20502;-67
2022/05/02 10:38:06;;;;;;;9.13;6.72;;;;;;;;;;5057418;28;20076;-67
2022/05/02 10:40:40;;;;;;;14.20;11.30;;;;;;;;;;5059600;28;20051;-67
2022/05/02 10:43:09;;;;;;;12.45;10.95;;;;;;;;;;5066222;28;20040;-67
2022/05/02 10:45:38;;;;;;;8.48;7.57;;;;;;;;;;5061501;28;20428;-67
2022/05/02 10:48:17;;;;;;;7.88;7.07;;;;;;;;;;5059064;28;20494;-66
2022/05/02 10:50:59;;;;;;;8.77;7.90;;;;;;;;;;5058562;28;20059;-67
2022/05/02 10:53:50;;;;;;;8.52;7.72;;;;;;;;;;5057614;28;20045;-66
2022/05/02 10:56:23;;;;;;;6.68;5.97;;;;;;;;;;5057324;28;20057;-66
2022/05/02 10:58:50;;;;;;;5.25;4.75;;;;;;;;;;5057359;28;20049;-67
2022/05/02 11:01:37;;;;;;;6.65;4.93;;;;;;;;;;5060851;28;20060;-66
2022/05/02 11:04:33;;;;;;;5.88;5.38;;;;;;;;;;5065913;28;20144;-66
2022/05/02 11:07:08;;;;;;;6.30;5.35;;;;;;;;;;5064626;28;20052;-66
2022/05/02 11:09:47;;;;;;;6.45;5.75;;;;;;;;;;5062907;28;20396;-66
2022/05/02 11:12:15;;;;;;;5.45;4.95;;;;;;;;;;5065794;28;20110;-66
2022/05/02 11:14:41;;;;;;;5.65;5.13;;;;;;;;;;5042404;28;20057;-66
2022/05/02 11:17:56;;;;;;;5.78;4.97;;;;;;;;;;5060583;28;20067;-66
2022/05/02 11:20:42;;;;;;;7.35;6.30;;;;;;;;;;5059116;28;20128;-67
2022/05/02 11:23:24;;;;;;;6.35;5.78;;;;;;;;;;5048322;28;20127;-67
2022/05/02 11:26:09;;;;;;;7.20;6.50;;;;;;;;;;5066607;28;20056;-66
2022/05/02 11:28:56;;;;;;;6.40;5.70;;;;;;;;;;5062991;28;20439;-67
2022/05/02 11:31:40;;;;;;;5.30;4.80;;;;;;;;;;5069156;28;20648;-66
2022/05/02 11:34:26;;;;;;;5.28;4.78;;;;;;;;;;5067086;28;20044;-66
2022/05/02 11:36:55;;;;;;;6.90;4.88;;;;;;;;;;5057504;28;20049;-67
2022/05/02 11:40:11;;;;;;;5.05;4.55;;;;;;;;;;5063263;28;20049;-69
2022/05/02 11:42:43;;;;;;;5.15;3.90;;;;;;;;;;4999257;28;20054;-66
2022/05/02 11:45:11;;;;;;;8.25;4.93;;;;;;;;;;5063694;28;20431;-66
2022/05/02 11:47:53;;;;;;;6.45;4.72;;;;;;;;;;5058411;28;20052;-67
2022/05/02 11:50:25;;;;;;;6.60;4.93;;;;;;;;;;5057697;28;20419;-67
2022/05/02 11:52:56;;;;;;;5.68;4.50;;;;;;;;;;5063427;28;20055;-67
2022/05/02 11:55:32;;;;;;;6.55;4.60;;;;;;;;;;5061846;28;20059;-67
2022/05/02 11:58:05;;;;;;;6.35;4.53;;;;;;;;;;5065543;28;20427;-67
2022/05/02 12:00:34;;;;;;;4.43;3.90;;;;;;;;;;5063277;28;20052;-67
2022/05/02 12:03:04;;;;;;;4.30;3.90;;;;;;;;;;5057982;28;20484;-67
2022/05/02 12:05:40;;;;;;;4.53;4.13;;;;;;;;;;5059931;28;20491;-67
2022/05/02 12:08:09;;;;;;;5.40;3.83;;;;;;;;;;5059348;28;20175;-67
2022/05/02 12:10:37;;;;;;;4.70;3.95;;;;;;;;;;5057304;28;20454;-67
2022/05/02 12:13:07;;;;;;;3.78;3.47;;;;;;;;;;5061428;28;20043;-67
2022/05/02 12:15:52;;;;;;;3.75;3.45;;;;;;;;;;5059593;28;20045;-67
2022/05/02 12:18:19;;;;;;;4.03;3.58;;;;;;;;;;5065966;28;20068;-67
2022/05/02 12:20:50;;;;;;;4.32;3.92;;;;;;;;;;5067196;28;20067;-67
2022/05/02 12:23:18;;;;;;;4.45;3.63;;;;;;;;;;5056321;28;20411;-67
2022/05/02 12:25:49;;;;;;;4.20;3.42;;;;;;;;;;5060430;28;20052;-67
2022/05/02 12:28:17;;;;;;;5.28;3.72;;;;;;;;;;5061950;28;20476;-67
2022/05/02 12:30:50;;;;;;;3.55;3.25;;;;;;;;;;5058433;28;20049;-67
2022/05/02 12:33:18;;;;;;;3.40;3.10;;;;;;;;;;5058835;28;20063;-67
2022/05/02 12:35:45;;;;;;;5.78;3.58;;;;;;;;;;5069576;28;20056;-67
2022/05/02 12:38:14;;;;;;;4.97;3.45;;;;;;;;;;5062008;28;20052;-67
2022/05/02 12:40:42;;;;;;;3.58;3.22;;;;;;;;;;5059740;28;20097;-67
2022/05/02 12:43:10;;;;;;;4.88;3.47;;;;;;;;;;5058951;28;20048;-67
2022/05/02 12:45:55;;;;;;;3.88;3.13;;;;;;;;;;5057113;28;20140;-67
2022/05/02 12:48:28;;;;;;;3.78;3.38;;;;;;;;;;5058090;28;20045;-67
2022/05/02 12:50:55;;;;;;;3.60;3.30;;;;;;;;;;5062558;28;20055;-67
2022/05/02 12:56:11;;;;;;;4.45;4.05;;;;;;;;;;5056925;28;20052;-67
2022/05/02 13:01:24;;;;;;;4.47;4.07;;;;;;;;;;5058972;28;20455;-67
2022/05/02 13:03:55;;;;;;;4.53;3.35;;;;;;;;;;5056436;28;20063;-67
2022/05/02 13:06:23;;;;;;;5.00;3.38;;;;;;;;;;5060992;28;20048;-67
2022/05/02 13:08:50;;;;;;;3.60;3.30;;;;;;;;;;5056920;28;20049;-66
2022/05/02 13:11:21;;;;;;;4.45;3.20;;;;;;;;;;5067204;28;20045;-66
2022/05/02 13:13:51;;;;;;;3.53;3.20;;;;;;;;;;5057828;28;20128;-66
2022/05/02 13:16:28;;;;;;;3.00;2.78;;;;;;;;;;5059862;28;20303;-66
2022/05/02 13:18:58;;;;;;;4.25;3.13;;;;;;;;;;5064074;28;20044;-66
2022/05/02 13:21:25;;;;;;;5.60;3.00;;;;;;;;;;5055424;28;20060;-66
2022/05/02 13:24:09;;;;;;;4.10;3.80;;;;;;;;;;5061104;28;20051;-65
2022/05/02 13:26:57;;;;;;;3.97;3.63;;;;;;;;;;5062112;28;20053;-66
2022/05/02 13:30:09;;;;;;;5.45;4.10;;;;;;;;;;5060235;28;20428;-66
2022/05/02 13:32:42;;;;;;;4.00;3.65;;;;;;;;;;5031819;28;20147;-66
2022/05/02 13:35:10;;;;;;;3.58;3.28;;;;;;;;;;5060710;28;20582;-66
2022/05/02 13:37:53;;;;;;;3.10;2.90;;;;;;;;;;5058427;28;20081;-65
2022/05/02 13:40:21;;;;;;;3.20;2.90;;;;;;;;;;5061428;28;20448;-66
2022/05/02 13:42:55;;;;;;;3.25;2.95;;;;;;;;;;5058467;28;20289;-66
2022/05/02 13:45:38;;;;;;;4.43;3.38;;;;;;;;;;5057308;28;20519;-66
2022/05/02 13:48:05;;;;;;;3.20;2.90;;;;;;;;;;5063075;28;20080;-66
2022/05/02 13:50:31;;;;;;;3.53;3.22;;;;;;;;;;5059117;28;20102;-66
2022/05/02 13:53:18;;;;;;;3.80;3.50;;;;;;;;;;5053763;28;20387;-67
2022/05/02 13:56:15;;;;;;;3.08;2.80;;;;;;;;;;5066807;28;20049;-67
2022/05/02 13:58:50;;;;;;;4.72;3.67;;;;;;;;;;5068194;28;20059;-66
2022/05/02 14:01:43;;;;;;;2.88;2.65;;;;;;;;;;5059954;28;20059;-66
2022/05/02 14:04:24;;;;;;;3.10;2.58;;;;;;;;;;5068438;28;20136;-69
2022/05/02 14:09:44;;;;;;;3.13;2.65;;;;;;;;;;5063133;28;20487;-67
2022/05/02 14:12:21;;;;;;;2.72;2.50;;;;;;;;;;5059930;28;20102;-68
2022/05/02 14:14:58;;;;;;;2.35;2.15;;;;;;;;;;5060614;28;20049;-68
2022/05/02 14:17:39;;;;;;;3.00;2.30;;;;;;;;;;5057843;28;20055;-66
2022/05/02 14:20:13;;;;;;;2.88;2.63;;;;;;;;;;5066387;28;20143;-67
2022/05/02 14:22:41;;;;;;;2.60;2.40;;;;;;;;;;5062704;28;20518;-66
2022/05/02 14:25:14;;;;;;;4.15;3.03;;;;;;;;;;5062428;28;20056;-66
2022/05/02 14:28:00;;;;;;;3.42;3.13;;;;;;;;;;5067947;28;20055;-67
2022/05/02 14:30:27;;;;;;;4.57;2.60;;;;;;;;;;5062895;28;20423;-66
2022/05/02 14:32:55;;;;;;;3.53;2.80;;;;;;;;;;5059880;28;20128;-67
2022/05/02 14:35:22;;;;;;;3.55;3.25;;;;;;;;;;5062226;28;20633;-67
2022/05/02 14:37:51;;;;;;;4.20;3.20;;;;;;;;;;5060152;28;20064;-66
2022/05/02 14:40:18;;;;;;;3.55;3.25;;;;;;;;;;5065131;28;20342;-67
2022/05/02 14:42:44;;;;;;;5.90;3.45;;;;;;;;;;5061074;28;20065;-67
2022/05/02 14:45:11;;;;;;;3.72;3.30;;;;;;;;;;5060693;28;20067;-67
2022/05/02 14:47:41;;;;;;;3.10;2.80;;;;;;;;;;5060200;28;20056;-67
2022/05/02 14:50:09;;;;;;;3.72;3.42;;;;;;;;;;5067100;28;20051;-67
2022/05/02 14:52:37;;;;;;;3.17;2.88;;;;;;;;;;5063299;28;20606;-66
2022/05/02 14:55:06;;;;;;;3.55;3.25;;;;;;;;;;5059488;28;20059;-66
2022/05/02 14:57:33;;;;;;;3.40;3.10;;;;;;;;;;5063615;28;20541;-66
2022/05/02 15:00:06;;;;;;;3.10;2.90;;;;;;;;;;5066240;28;20053;-66
2022/05/02 15:02:37;;;;;;;4.25;3.13;;;;;;;;;;5061586;28;20435;-66
2022/05/02 15:05:07;;;;;;;3.40;3.10;;;;;;;;;;5083702;22;20049;-65
2022/05/02 15:08:00;;;;;;;3.25;2.95;;;;;;;;;;5061821;28;20098;-65
2022/05/02 15:10:42;;;;;;;;;;;;;;;;;;5044683;28;20048;-64
2022/05/02 15:13:25;;;;;;;3.63;3.33;;;;;;;;;;5050735;28;19947;-67
2022/05/02 15:15:52;;;;;;;;;;;;;;;;;;5051336;28;20324;-67
2022/05/02 15:18:36;;;;;;;3.45;3.20;;;;;;;;;;5052045;28;19925;-67
2022/05/02 15:21:14;;;;;;;3.25;3.03;;;;;;;;;;5051085;28;20442;-65
2022/05/02 15:23:41;;;;;;;3.10;2.80;;;;;;;;;;5050088;28;20045;-66
2022/05/02 15:26:08;;;;;;;3.35;3.05;;;;;;;;;;5051694;28;20049;-66
2022/05/02 15:37:38;;;;;;;3.00;2.80;;;;;;;;;;5037129;28;20060;-68
2022/05/02 15:40:38;;;;;;;3.95;3.28;;;;;;;;;;5050468;28;20048;-71
2022/05/02 15:43:22;;;;;;;4.28;3.53;;;;;;;;;;5050871;28;20045;-73
2022/05/02 15:45:49;;;;;;;3.47;3.15;;;;;;;;;;5008723;28;20513;-70
2022/05/02 15:48:35;;;;;;;3.85;3.53;;;;;;;;;;5048694;28;20053;-69
2022/05/02 15:51:22;;;;;;;5.40;3.88;;;;;;;;;;5051138;28;20060;-67